createdAt,value
2022-12-31T00:02:10.268Z,1.30
2022-12-31T00:04:36.736Z,2.23
2022-12-31T00:07:03.155Z,1.20
2022-12-31T00:09:29.530Z,1.33
2022-12-31T00:11:55.877Z,1.30
2022-12-31T00:14:22.231Z,1.30
2022-12-31T00:16:48.653Z,1.33
2022-12-31T00:19:15.038Z,1.17
2022-12-31T00:21:43.343Z,1.00
2022-12-31T00:24:11.556Z,2.63
2022-12-31T00:26:37.983Z,1.13
2022-12-31T00:29:04.999Z,1.50
2022-12-31T00:31:34.403Z,1.33
2022-12-31T00:34:01.191Z,1.37
2022-12-31T00:36:30.707Z,1.20
2022-12-31T00:38:58.485Z,1.07
2022-12-31T00:41:25.602Z,1.20
2022-12-31T00:43:52.586Z,1.17
2022-12-31T00:46:19.491Z,1.20
2022-12-31T00:48:46.786Z,1.10
2022-12-31T00:51:15.934Z,2.83
2022-12-31T00:53:42.580Z,1.33
2022-12-31T00:56:14.842Z,1.10
2022-12-31T00:58:41.840Z,1.10
2022-12-31T01:01:09.660Z,1.23
2022-12-31T01:03:36.102Z,0.90
2022-12-31T01:06:02.530Z,1.30
2022-12-31T01:08:28.924Z,1.30
2022-12-31T01:11:13.611Z,1.13
2022-12-31T01:13:40.030Z,0.80
2022-12-31T01:16:11.808Z,1.10
2022-12-31T01:18:38.511Z,1.10
2022-12-31T01:21:07.241Z,1.23
2022-12-31T01:23:33.690Z,1.07
2022-12-31T01:26:01.927Z,1.80
2022-12-31T01:28:29.734Z,1.50
2022-12-31T01:30:56.802Z,1.60
2022-12-31T01:33:23.440Z,1.20
2022-12-31T01:35:51.651Z,1.30
2022-12-31T01:38:18.011Z,1.47
2022-12-31T01:40:44.375Z,1.30
2022-12-31T01:43:15.762Z,1.03
2022-12-31T01:45:45.525Z,0.90
2022-12-31T01:48:15.055Z,1.10
2022-12-31T01:50:42.844Z,1.40
2022-12-31T01:53:10.784Z,0.93
2022-12-31T01:55:49.136Z,1.23
2022-12-31T01:58:20.706Z,1.07
2022-12-31T02:00:49.176Z,1.10
2022-12-31T02:03:15.739Z,1.10
2022-12-31T02:05:52.002Z,1.07
2022-12-31T02:08:18.500Z,1.27
2022-12-31T02:10:44.901Z,0.90
2022-12-31T02:13:11.379Z,1.10
2022-12-31T02:15:59.564Z,0.73
2022-12-31T02:18:42.016Z,0.80
2022-12-31T02:21:17.328Z,0.93
2022-12-31T02:24:06.993Z,0.80
2022-12-31T02:26:51.628Z,0.70
2022-12-31T02:29:40.026Z,0.73
2022-12-31T02:32:17.405Z,1.00
2022-12-31T02:34:52.683Z,0.80
2022-12-31T02:37:21.838Z,1.47
2022-12-31T02:39:49.070Z,1.70
2022-12-31T02:42:15.448Z,1.00
2022-12-31T02:44:43.315Z,0.80
2022-12-31T02:47:09.665Z,0.90
2022-12-31T02:49:54.695Z,0.97
2022-12-31T02:52:37.962Z,0.80
2022-12-31T02:55:24.820Z,0.80
2022-12-31T02:58:07.826Z,0.80
2022-12-31T03:01:00.024Z,0.70
2022-12-31T03:03:27.576Z,0.60
2022-12-31T03:05:55.956Z,0.80
2022-12-31T03:08:23.838Z,0.60
2022-12-31T03:10:50.418Z,0.80
2022-12-31T03:13:16.826Z,2.57
2022-12-31T03:15:43.536Z,0.80
2022-12-31T03:18:12.616Z,0.60
2022-12-31T03:21:04.882Z,0.70
2022-12-31T03:23:40.387Z,0.70
2022-12-31T03:26:10.598Z,0.60
2022-12-31T03:28:42.345Z,0.90
2022-12-31T03:31:09.122Z,0.77
2022-12-31T03:33:39.270Z,1.20
2022-12-31T03:36:14.429Z,0.70
2022-12-31T03:38:41.448Z,0.60
2022-12-31T03:41:10.385Z,1.03
2022-12-31T03:43:36.773Z,1.70
2022-12-31T03:46:03.174Z,0.93
2022-12-31T03:48:29.636Z,0.73
2022-12-31T03:50:56.081Z,0.80
2022-12-31T03:53:22.561Z,0.80
2022-12-31T03:55:54.844Z,0.80
2022-12-31T03:58:21.922Z,2.50
2022-12-31T04:00:48.789Z,0.60
2022-12-31T04:03:15.377Z,0.60
2022-12-31T04:05:41.806Z,1.37
2022-12-31T04:08:08.327Z,1.27
2022-12-31T04:10:34.820Z,1.57
2022-12-31T04:13:04.241Z,2.73
2022-12-31T04:15:30.685Z,1.23
2022-12-31T04:17:57.145Z,1.10
2022-12-31T04:20:23.493Z,0.80
2022-12-31T04:22:49.843Z,4.93
2022-12-31T04:25:16.280Z,1.47
2022-12-31T04:27:43.994Z,1.10
2022-12-31T04:30:12.161Z,1.10
2022-12-31T04:32:38.603Z,1.90
2022-12-31T04:35:05.560Z,0.80
2022-12-31T04:37:32.022Z,1.03
2022-12-31T04:40:05.127Z,0.80
2022-12-31T04:42:32.413Z,0.70
2022-12-31T04:44:58.846Z,0.70
2022-12-31T04:47:25.257Z,1.00
2022-12-31T04:49:51.693Z,1.00
2022-12-31T04:52:18.060Z,0.70
2022-12-31T04:54:44.450Z,0.73
2022-12-31T04:57:10.876Z,1.20
2022-12-31T04:59:37.265Z,0.70
2022-12-31T05:02:03.880Z,1.07
2022-12-31T05:04:30.448Z,1.20
2022-12-31T05:06:56.908Z,1.03
2022-12-31T05:09:24.181Z,0.90
2022-12-31T05:11:50.836Z,0.80
2022-12-31T05:14:17.522Z,0.73
2022-12-31T05:16:44.017Z,0.70
2022-12-31T05:19:10.443Z,6.80
2022-12-31T05:21:36.966Z,0.87
2022-12-31T05:24:03.502Z,3.07
2022-12-31T05:26:30.106Z,1.00
2022-12-31T05:28:56.701Z,0.90
2022-12-31T05:31:23.288Z,0.83
2022-12-31T05:33:49.656Z,0.83
2022-12-31T05:36:16.039Z,0.87
2022-12-31T05:38:42.419Z,0.70
2022-12-31T05:41:08.882Z,0.70
2022-12-31T05:43:35.331Z,0.80
2022-12-31T05:46:03.029Z,0.83
2022-12-31T05:48:30.000Z,0.80
2022-12-31T05:50:56.486Z,1.17
2022-12-31T05:53:23.023Z,3.40
2022-12-31T05:55:49.994Z,0.90
2022-12-31T05:58:16.466Z,1.10
2022-12-31T06:00:43.225Z,0.90
2022-12-31T06:03:10.117Z,0.97
2022-12-31T06:05:40.289Z,1.07
2022-12-31T06:08:06.713Z,0.80
2022-12-31T06:10:33.099Z,1.00
2022-12-31T06:12:59.539Z,1.00
2022-12-31T06:15:25.901Z,1.43
2022-12-31T06:17:52.418Z,0.80
2022-12-31T06:20:18.816Z,1.90
2022-12-31T06:22:45.169Z,4.27
2022-12-31T06:25:12.164Z,1.07
2022-12-31T06:27:38.531Z,1.03
2022-12-31T06:30:05.501Z,1.07
2022-12-31T06:32:31.878Z,1.00
2022-12-31T06:34:58.234Z,1.80
2022-12-31T06:37:24.608Z,1.10
2022-12-31T06:39:50.965Z,2.77
2022-12-31T06:42:17.344Z,0.90
2022-12-31T06:44:43.711Z,2.53
2022-12-31T06:47:10.080Z,1.10
2022-12-31T06:49:36.468Z,1.00
2022-12-31T06:52:02.922Z,1.10
2022-12-31T06:54:29.277Z,2.30
2022-12-31T06:56:56.020Z,1.00
2022-12-31T06:59:26.122Z,1.13
2022-12-31T07:02:14.045Z,9.13
2022-12-31T07:05:02.048Z,1.43
2022-12-31T07:07:58.692Z,1.10
2022-12-31T07:10:32.458Z,1.30
2022-12-31T07:13:27.656Z,3.13
2022-12-31T07:16:32.838Z,0.93
2022-12-31T07:19:22.596Z,1.40
2022-12-31T07:21:51.273Z,2.83
2022-12-31T07:24:18.009Z,1.07
2022-12-31T07:27:01.245Z,2.00
2022-12-31T07:29:44.466Z,1.03
2022-12-31T07:32:20.007Z,1.40
2022-12-31T07:34:55.519Z,1.20
2022-12-31T07:37:53.744Z,1.13
2022-12-31T07:40:35.350Z,2.63
2022-12-31T07:43:28.265Z,1.10
2022-12-31T07:46:16.265Z,1.10
2022-12-31T07:48:43.119Z,2.00
2022-12-31T07:51:10.828Z,1.07
2022-12-31T07:53:39.315Z,1.20
2022-12-31T07:56:08.351Z,2.27
2022-12-31T07:58:58.027Z,3.73
2022-12-31T08:01:44.089Z,0.93
2022-12-31T08:04:28.837Z,1.20
2022-12-31T08:07:18.953Z,1.33
2022-12-31T08:10:18.252Z,3.40
2022-12-31T08:12:48.369Z,3.03
2022-12-31T08:15:18.175Z,1.60
2022-12-31T08:17:45.137Z,1.60
2022-12-31T08:20:19.202Z,2.90
2022-12-31T08:23:13.398Z,1.30
2022-12-31T08:26:05.593Z,2.30
2022-12-31T08:28:45.636Z,1.43
2022-12-31T08:31:23.105Z,1.23
2022-12-31T08:34:07.331Z,2.37
2022-12-31T08:36:59.926Z,1.10
2022-12-31T08:39:35.376Z,0.93
2022-12-31T08:42:04.945Z,1.10
2022-12-31T08:44:52.556Z,3.30
2022-12-31T08:47:31.902Z,1.27
2022-12-31T08:50:02.226Z,1.20
2022-12-31T08:52:29.044Z,1.10
2022-12-31T08:54:55.771Z,1.60
2022-12-31T08:57:53.995Z,1.10
2022-12-31T09:00:21.153Z,1.80
2022-12-31T09:03:09.036Z,2.20
2022-12-31T09:06:02.328Z,1.70
2022-12-31T09:08:49.265Z,1.63
2022-12-31T09:11:23.720Z,1.50
2022-12-31T09:14:02.626Z,2.83
2022-12-31T09:16:51.701Z,2.00
2022-12-31T09:19:19.221Z,1.73
2022-12-31T09:21:46.119Z,2.60
2022-12-31T09:24:14.944Z,1.30
2022-12-31T09:27:13.708Z,1.50
2022-12-31T09:30:05.721Z,1.17
2022-12-31T09:32:58.607Z,2.60
2022-12-31T09:35:52.357Z,4.80
2022-12-31T09:38:27.525Z,1.73
2022-12-31T09:41:15.165Z,2.93
2022-12-31T09:44:05.757Z,1.70
2022-12-31T09:47:11.102Z,6.60
2022-12-31T09:50:18.514Z,1.57
2022-12-31T09:52:51.002Z,1.60
2022-12-31T09:55:54.935Z,1.10
2022-12-31T09:58:30.515Z,2.17
2022-12-31T10:01:12.531Z,1.90
2022-12-31T10:04:06.267Z,1.73
2022-12-31T10:07:01.790Z,2.10
2022-12-31T10:10:20.135Z,5.03
2022-12-31T10:13:05.586Z,1.47
2022-12-31T10:15:34.908Z,3.17
2022-12-31T10:18:13.483Z,1.03
2022-12-31T10:21:04.892Z,1.50
2022-12-31T10:24:05.017Z,1.83
2022-12-31T10:27:18.947Z,1.90
2022-12-31T10:29:47.152Z,2.13
2022-12-31T10:32:16.893Z,1.40
2022-12-31T10:34:55.422Z,1.57
2022-12-31T10:37:44.913Z,1.27
2022-12-31T10:40:37.667Z,2.80
2022-12-31T10:43:28.932Z,1.10
2022-12-31T10:46:22.561Z,1.40
2022-12-31T10:49:06.090Z,1.47
2022-12-31T10:52:07.425Z,2.53
2022-12-31T10:55:05.196Z,3.10
2022-12-31T10:57:50.638Z,1.00
2022-12-31T11:00:19.768Z,2.27
2022-12-31T11:03:16.708Z,3.03
2022-12-31T11:06:27.360Z,1.90
2022-12-31T11:09:22.106Z,2.40
2022-12-31T11:12:28.506Z,1.37
2022-12-31T11:15:20.977Z,3.87
2022-12-31T11:18:06.509Z,2.83
2022-12-31T11:21:06.784Z,2.47
2022-12-31T11:23:47.267Z,2.10
2022-12-31T11:26:45.313Z,2.53
2022-12-31T11:29:30.187Z,5.70
2022-12-31T11:32:10.369Z,1.33
2022-12-31T11:34:53.863Z,5.30
2022-12-31T11:37:35.355Z,2.00
2022-12-31T11:40:21.453Z,8.07
2022-12-31T11:43:06.497Z,2.10
2022-12-31T11:45:58.979Z,6.93
2022-12-31T11:48:46.436Z,1.30
2022-12-31T11:51:50.985Z,1.70
2022-12-31T11:54:38.829Z,1.60
2022-12-31T11:57:35.634Z,6.17
2022-12-31T12:00:21.933Z,1.70
2022-12-31T12:02:51.933Z,4.63
2022-12-31T12:05:21.792Z,1.70
2022-12-31T12:07:49.770Z,2.43
2022-12-31T12:10:36.168Z,1.73
2022-12-31T12:13:11.369Z,2.40
2022-12-31T12:15:38.091Z,4.70
2022-12-31T12:18:13.788Z,2.33
2022-12-31T12:20:41.519Z,2.93
2022-12-31T12:23:16.108Z,2.90
2022-12-31T12:25:44.750Z,1.30
2022-12-31T12:28:20.477Z,1.77
2022-12-31T12:30:54.599Z,10.57
2022-12-31T12:33:21.411Z,2.03
2022-12-31T12:35:48.142Z,2.13
2022-12-31T12:38:22.866Z,5.60
2022-12-31T12:40:57.767Z,1.40
2022-12-31T12:43:43.776Z,1.37
2022-12-31T12:46:32.181Z,3.73
2022-12-31T12:48:59.377Z,1.30
2022-12-31T12:51:47.959Z,1.50
2022-12-31T12:54:52.226Z,2.07
2022-12-31T12:57:33.785Z,2.10
2022-12-31T13:00:46.446Z,1.63
2022-12-31T13:03:12.822Z,2.20
2022-12-31T13:06:13.924Z,3.93
2022-12-31T13:09:02.262Z,1.40
2022-12-31T13:12:10.053Z,4.20
2022-12-31T13:15:08.785Z,1.67
2022-12-31T13:18:11.307Z,3.23
2022-12-31T13:20:58.513Z,2.07
2022-12-31T13:24:05.517Z,1.40
2022-12-31T13:26:39.387Z,2.10
2022-12-31T13:29:12.364Z,1.50
2022-12-31T13:31:40.231Z,3.03
2022-12-31T13:34:31.756Z,1.50
2022-12-31T13:37:06.731Z,2.63
2022-12-31T13:39:38.810Z,2.53
2022-12-31T13:42:13.379Z,7.23
2022-12-31T13:44:48.622Z,2.97
2022-12-31T13:47:28.470Z,2.00
2022-12-31T13:50:00.707Z,2.50
2022-12-31T13:52:34.064Z,1.50
2022-12-31T13:55:22.706Z,6.20
2022-12-31T13:57:58.073Z,2.10
2022-12-31T14:00:28.920Z,4.83
2022-12-31T14:03:13.323Z,5.40
2022-12-31T14:05:54.961Z,10.10
2022-12-31T14:08:21.652Z,2.47
2022-12-31T14:11:15.738Z,2.60
2022-12-31T14:13:58.917Z,5.17
2022-12-31T14:17:02.244Z,1.90
2022-12-31T14:19:50.271Z,2.03
2022-12-31T14:22:42.458Z,1.70
2022-12-31T14:25:26.027Z,2.27
2022-12-31T14:27:56.192Z,2.13
2022-12-31T14:30:25.600Z,2.43
2022-12-31T14:33:22.479Z,6.87
2022-12-31T14:36:09.990Z,3.77
2022-12-31T14:39:10.142Z,8.83
2022-12-31T14:41:48.922Z,2.37
2022-12-31T14:44:34.263Z,3.87
2022-12-31T14:47:22.741Z,7.40
2022-12-31T14:50:11.840Z,7.53
2022-12-31T14:52:49.512Z,1.80
2022-12-31T14:55:36.986Z,2.43
2022-12-31T14:58:29.200Z,8.00
2022-12-31T15:00:59.202Z,4.57
2022-12-31T15:03:31.558Z,5.77
2022-12-31T15:06:07.148Z,2.83
2022-12-31T15:08:46.842Z,5.07
2022-12-31T15:11:22.476Z,8.60
2022-12-31T15:14:04.129Z,1.87
2022-12-31T15:16:44.911Z,4.23
2022-12-31T15:19:43.639Z,2.03
2022-12-31T15:22:25.516Z,3.73
2022-12-31T15:24:52.080Z,2.10
2022-12-31T15:27:42.124Z,7.10
2022-12-31T15:30:35.394Z,12.43
2022-12-31T15:33:05.778Z,2.73
2022-12-31T15:35:45.914Z,4.30
2022-12-31T15:38:15.268Z,3.80
2022-12-31T15:40:49.718Z,2.43
2022-12-31T15:43:25.304Z,7.20
2022-12-31T15:45:54.827Z,4.07
2022-12-31T15:48:36.114Z,5.13
2022-12-31T15:51:04.910Z,2.00
2022-12-31T15:53:43.317Z,5.37
2022-12-31T15:56:19.708Z,2.20
2022-12-31T15:58:47.474Z,2.77
2022-12-31T16:01:23.466Z,3.83
2022-12-31T16:03:57.596Z,2.53
2022-12-31T16:06:28.769Z,3.50
2022-12-31T16:08:56.000Z,2.60
2022-12-31T16:11:25.385Z,1.97
2022-12-31T16:13:55.035Z,2.90
2022-12-31T16:16:27.290Z,2.60
2022-12-31T16:18:54.401Z,2.40
2022-12-31T16:21:36.646Z,1.83
2022-12-31T16:24:07.283Z,2.30
2022-12-31T16:26:46.310Z,1.90
2022-12-31T16:29:18.283Z,2.13
2022-12-31T16:31:46.553Z,2.40
2022-12-31T16:34:25.381Z,2.10
2022-12-31T16:36:56.064Z,1.97
2022-12-31T16:39:29.794Z,2.30
2022-12-31T16:42:08.517Z,1.97
2022-12-31T16:44:36.895Z,10.03
2022-12-31T16:47:04.046Z,2.13
2022-12-31T16:49:33.074Z,4.38
2022-12-31T16:52:06.837Z,3.17
2022-12-31T16:54:38.794Z,2.53
2022-12-31T16:57:06.314Z,2.57
2022-12-31T16:59:40.155Z,9.53
2022-12-31T17:02:22.396Z,2.83
2022-12-31T17:04:55.702Z,5.33
2022-12-31T17:07:35.174Z,2.60
2022-12-31T17:10:14.663Z,2.97
2022-12-31T17:13:25.585Z,2.63
2022-12-31T17:15:44.406Z,2.97
2022-12-31T17:18:26.223Z,4.10
2022-12-31T17:20:54.709Z,2.57
2022-12-31T17:23:28.325Z,2.57
2022-12-31T17:26:10.011Z,4.20
2022-12-31T17:28:48.959Z,4.63
2022-12-31T17:31:33.083Z,3.50
2022-12-31T17:34:12.674Z,3.60
2022-12-31T17:36:55.911Z,2.80
2022-12-31T17:39:23.834Z,3.10
2022-12-31T17:41:52.747Z,4.70
2022-12-31T17:44:25.617Z,3.30
2022-12-31T17:46:52.595Z,4.03
2022-12-31T17:49:27.001Z,3.37
2022-12-31T17:51:53.466Z,5.07
2022-12-31T17:54:20.117Z,13.70
2022-12-31T17:56:47.158Z,3.60
2022-12-31T17:59:17.419Z,3.60
2022-12-31T18:01:44.087Z,4.40
2022-12-31T18:04:16.221Z,14.50
2022-12-31T18:06:43.343Z,6.90
2022-12-31T18:09:10.299Z,3.67
2022-12-31T18:11:38.053Z,6.87
2022-12-31T18:14:04.862Z,4.13
2022-12-31T18:16:31.625Z,8.97
2022-12-31T18:19:00.236Z,5.53
2022-12-31T18:21:35.785Z,6.23
2022-12-31T18:26:38.410Z,3.60
2022-12-31T18:29:16.904Z,3.13
2022-12-31T18:31:48.954Z,3.57
2022-12-31T18:34:17.387Z,10.40
2022-12-31T18:36:43.942Z,6.80
2022-12-31T18:39:10.454Z,3.13
2022-12-31T18:42:00.908Z,5.97
2022-12-31T18:44:27.299Z,14.23
2022-12-31T18:46:53.684Z,7.60
2022-12-31T18:49:21.557Z,11.30
2022-12-31T18:51:53.218Z,3.10
2022-12-31T18:54:20.720Z,3.27
2022-12-31T18:56:50.194Z,3.33
2022-12-31T18:59:18.937Z,3.93
2022-12-31T19:01:45.454Z,5.53
2022-12-31T19:04:26.592Z,2.97
2022-12-31T19:06:53.859Z,8.30
2022-12-31T19:09:44.027Z,3.37
2022-12-31T19:12:06.655Z,2.97
2022-12-31T19:14:33.017Z,4.83
2022-12-31T19:19:25.707Z,8.03
2022-12-31T19:21:52.119Z,3.23
2022-12-31T19:24:21.727Z,4.03
2022-12-31T19:26:48.778Z,6.73
2022-12-31T19:29:26.637Z,3.87
2022-12-31T19:31:53.248Z,3.97
2022-12-31T19:34:19.839Z,9.03
2022-12-31T19:36:46.348Z,12.33
2022-12-31T19:39:19.082Z,4.30
2022-12-31T19:41:46.379Z,4.23
2022-12-31T19:44:17.454Z,2.93
2022-12-31T19:46:44.787Z,3.93
2022-12-31T19:49:12.630Z,5.10
2022-12-31T19:51:39.777Z,7.50
2022-12-31T19:54:06.752Z,3.70
2022-12-31T19:56:33.302Z,3.83
2022-12-31T19:59:10.247Z,3.43
2022-12-31T20:01:36.967Z,3.50
2022-12-31T20:04:03.565Z,6.60
2022-12-31T20:06:29.970Z,6.43
2022-12-31T20:08:56.334Z,6.13
2022-12-31T20:11:23.798Z,9.20
2022-12-31T20:13:52.214Z,4.83
2022-12-31T20:16:20.479Z,5.30
2022-12-31T20:18:47.562Z,14.77
2022-12-31T20:21:19.892Z,6.30
2022-12-31T20:23:47.461Z,16.70
2022-12-31T20:26:13.860Z,4.97
2022-12-31T20:28:40.344Z,6.83
2022-12-31T20:31:07.851Z,10.43
2022-12-31T20:33:34.730Z,5.53
2022-12-31T20:36:03.498Z,9.53
2022-12-31T20:38:29.937Z,6.33
2022-12-31T20:41:03.597Z,5.50
2022-12-31T20:43:32.100Z,14.93
2022-12-31T20:45:58.558Z,9.73
2022-12-31T20:48:25.128Z,12.43
2022-12-31T20:50:55.893Z,10.03
2022-12-31T20:53:22.517Z,6.43
2022-12-31T20:55:48.937Z,8.63
2022-12-31T20:58:15.559Z,11.80
2022-12-31T21:00:50.535Z,6.03
2022-12-31T21:03:53.836Z,5.47
2022-12-31T21:06:05.601Z,11.00
2022-12-31T21:08:34.961Z,5.73
2022-12-31T21:11:02.435Z,4.90
2022-12-31T21:13:28.945Z,7.20
2022-12-31T21:15:55.729Z,7.43
2022-12-31T21:18:22.923Z,12.20
2022-12-31T21:20:51.098Z,4.53
2022-12-31T21:23:18.899Z,7.70
2022-12-31T21:25:45.843Z,9.00
2022-12-31T21:28:12.905Z,19.70
2022-12-31T21:30:40.920Z,11.70
2022-12-31T21:33:07.786Z,12.53
2022-12-31T21:35:45.679Z,4.07
2022-12-31T21:38:18.754Z,10.47
2022-12-31T21:40:45.352Z,4.20
2022-12-31T21:43:12.338Z,4.20
2022-12-31T21:45:39.129Z,6.73
2022-12-31T21:48:21.958Z,22.43
2022-12-31T21:50:51.570Z,4.20
2022-12-31T21:53:27.889Z,16.37
2022-12-31T21:56:15.910Z,13.83
2022-12-31T21:59:08.235Z,11.77
2022-12-31T22:01:55.905Z,10.50
2022-12-31T22:04:59.720Z,6.70
2022-12-31T22:07:08.623Z,6.50
2022-12-31T22:09:39.870Z,19.10
2022-12-31T22:12:06.410Z,6.80
2022-12-31T22:14:32.755Z,5.73
2022-12-31T22:16:59.097Z,14.27
2022-12-31T22:19:25.901Z,9.37
2022-12-31T22:21:52.257Z,9.93
2022-12-31T22:24:18.620Z,4.67
2022-12-31T22:26:46.892Z,7.00
2022-12-31T22:29:13.553Z,12.17
2022-12-31T22:31:39.955Z,8.37
2022-12-31T22:34:06.327Z,12.97
2022-12-31T22:36:35.841Z,6.97
2022-12-31T22:39:02.189Z,7.60
2022-12-31T22:41:29.570Z,7.10
2022-12-31T22:44:03.669Z,5.03
2022-12-31T22:46:30.733Z,12.83
2022-12-31T22:48:59.218Z,16.13
2022-12-31T22:51:30.514Z,20.00
2022-12-31T22:54:12.755Z,24.00
2022-12-31T22:56:39.135Z,10.17
2022-12-31T22:59:05.619Z,4.10
2022-12-31T23:01:32.074Z,5.57
2022-12-31T23:03:58.600Z,17.90
2022-12-31T23:06:24.997Z,8.80
2022-12-31T23:09:11.316Z,25.00
2022-12-31T23:11:38.547Z,24.17
2022-12-31T23:14:25.456Z,42.00
2022-12-31T23:17:30.172Z,62.37
2022-12-31T23:20:15.750Z,64.73
2022-12-31T23:23:00.488Z,64.20
2022-12-31T23:25:26.839Z,73.73
2022-12-31T23:27:53.224Z,65.33
2022-12-31T23:30:19.558Z,78.57
2022-12-31T23:32:45.940Z,80.87
2022-12-31T23:35:12.370Z,60.43
2022-12-31T23:37:38.735Z,57.00
2022-12-31T23:40:06.295Z,60.53
2022-12-31T23:42:32.628Z,46.07
2022-12-31T23:44:59.008Z,44.57
2022-12-31T23:47:25.406Z,45.07
2022-12-31T23:49:51.749Z,39.33
2022-12-31T23:52:18.100Z,36.67
2022-12-31T23:54:44.480Z,41.70
2022-12-31T23:57:10.938Z,37.43
2022-12-31T23:59:37.297Z,29.37
